Time;durP1;ratioP1;P1;durP2;ratioP2;P2;SDS_P1;SDS_P2;PMS_P1;PMS_P2;Temp;Humidity;BMP_temperature;BMP_pressure;BME280_temperature;BME280_humidity;BME280_pressure;Samples;Min_cycle;Max_cycle;Signal;HPM_P1;HPM_P2
2021/12/20 00:01:44;;;;;;;23.85;4.07;;;6.60;99.90;;;;;;5087936;28;20028;-77
2021/12/20 00:04:10;;;;;;;33.58;4.25;;;6.60;99.90;;;;;;5067611;28;20035;-77
2021/12/20 00:06:36;;;;;;;36.05;5.28;;;6.60;99.90;;;;;;5078278;28;20464;-77
2021/12/20 00:09:03;;;;;;;27.48;4.57;;;6.70;99.90;;;;;;5086500;28;20032;-77
2021/12/20 00:11:28;;;;;;;16.40;3.55;;;6.60;99.90;;;;;;5089785;28;20093;-77
2021/12/20 00:13:54;;;;;;;25.15;4.65;;;6.60;99.90;;;;;;5107097;27;20489;-77
2021/12/20 00:16:20;;;;;;;25.27;4.53;;;6.60;99.90;;;;;;5076191;28;20036;-77
2021/12/20 00:18:45;;;;;;;28.65;3.95;;;6.60;99.90;;;;;;5068505;28;20466;-77
2021/12/20 00:21:11;;;;;;;23.20;4.50;;;6.60;99.90;;;;;;5076386;28;20173;-77
2021/12/20 00:23:38;;;;;;;22.65;3.80;;;6.50;99.90;;;;;;5085143;28;20039;-77
2021/12/20 00:26:03;;;;;;;30.50;3.80;;;6.50;99.90;;;;;;5084475;28;20036;-77
2021/12/20 00:28:29;;;;;;;22.85;4.70;;;6.50;99.90;;;;;;5068313;28;20123;-77
2021/12/20 00:30:55;;;;;;;25.88;4.63;;;6.50;99.90;;;;;;5087461;28;20047;-77
2021/12/20 00:33:21;;;;;;;33.25;5.25;;;6.50;99.90;;;;;;5069963;28;20096;-77
2021/12/20 00:35:47;;;;;;;25.17;3.53;;;6.50;99.90;;;;;;5070656;28;20044;-77
2021/12/20 00:40:58;;;;;;;23.40;3.75;;;6.50;99.90;;;;;;5104181;28;20040;-77
2021/12/20 00:43:25;;;;;;;23.58;3.63;;;6.50;99.90;;;;;;5069088;28;20051;-77
2021/12/20 00:45:51;;;;;;;35.50;5.85;;;6.50;99.90;;;;;;5070138;28;20432;-77
2021/12/20 00:48:16;;;;;;;24.63;4.10;;;6.50;99.90;;;;;;5068847;28;20039;-77
2021/12/20 00:50:44;;;;;;;31.38;4.47;;;6.50;99.90;;;;;;5103737;28;20443;-77
2021/12/20 00:53:11;;;;;;;38.25;5.05;;;6.50;99.90;;;;;;5100602;28;20044;-77
2021/12/20 00:55:37;;;;;;;26.70;4.30;;;6.50;99.90;;;;;;5101329;28;20489;-77
2021/12/20 00:58:03;;;;;;;24.08;3.80;;;6.50;99.90;;;;;;5085913;28;20063;-77
2021/12/20 01:00:40;;;;;;;37.95;5.97;;;6.50;99.90;;;;;;5103440;28;20097;-77
2021/12/20 01:03:08;;;;;;;25.42;4.47;;;6.50;99.90;;;;;;5090154;28;20108;-77
2021/12/20 01:05:35;;;;;;;29.50;3.90;;;6.50;99.90;;;;;;5068312;28;20032;-77
2021/12/20 01:08:04;;;;;;;34.20;5.13;;;6.50;99.90;;;;;;5086158;28;20036;-77
2021/12/20 01:10:30;;;;;;;30.17;5.68;;;6.50;99.90;;;;;;5085367;28;20385;-77
2021/12/20 01:12:59;;;;;;;23.48;4.35;;;6.50;99.90;;;;;;5088643;28;20051;-77
2021/12/20 01:15:33;;;;;;;30.73;4.10;;;6.50;99.90;;;;;;5071024;28;20512;-77
2021/12/20 01:17:59;;;;;;;20.17;3.35;;;6.50;99.90;;;;;;5086125;28;20055;-77
2021/12/20 01:20:25;;;;;;;25.98;4.30;;;6.40;99.90;;;;;;5086843;28;20032;-77
2021/12/20 01:22:51;;;;;;;27.15;3.63;;;6.40;99.90;;;;;;5085867;28;20032;-77
2021/12/20 01:25:18;;;;;;;23.73;4.00;;;6.40;99.90;;;;;;5060346;28;20529;-77
2021/12/20 01:27:44;;;;;;;26.40;4.03;;;6.40;99.90;;;;;;5070470;28;20075;-77
2021/12/20 01:30:12;;;;;;;19.90;3.53;;;6.40;99.90;;;;;;5075635;28;20141;-77
2021/12/20 01:32:39;;;;;;;26.85;4.47;;;6.40;99.90;;;;;;5080338;28;20032;-77
2021/12/20 01:35:06;;;;;;;23.52;4.05;;;6.30;99.90;;;;;;5073242;28;20335;-77
2021/12/20 01:37:32;;;;;;;27.58;5.13;;;6.30;99.90;;;;;;5100992;28;20036;-77
2021/12/20 01:39:59;;;;;;;31.23;4.65;;;6.30;99.90;;;;;;5068087;28;20032;-77
2021/12/20 01:42:27;;;;;;;21.92;3.78;;;6.30;99.90;;;;;;5069220;28;20032;-77
2021/12/20 01:44:56;;;;;;;25.17;3.80;;;6.30;99.90;;;;;;5084477;28;20525;-77
2021/12/20 01:47:36;;;;;;;19.00;2.92;;;6.20;99.90;;;;;;5067675;28;20071;-77
2021/12/20 01:50:19;;;;;;;20.20;3.05;;;6.20;99.90;;;;;;5068497;28;20040;-77
2021/12/20 01:52:45;;;;;;;23.90;3.97;;;6.10;99.90;;;;;;5068958;28;20035;-77
2021/12/20 01:55:14;;;;;;;26.00;4.30;;;6.10;99.90;;;;;;5063444;28;20037;-77
2021/12/20 01:57:40;;;;;;;27.35;4.18;;;6.10;99.90;;;;;;5094223;28;20036;-77
2021/12/20 02:00:09;;;;;;;24.70;4.95;;;6.10;99.90;;;;;;5082044;28;20115;-77
2021/12/20 02:02:35;;;;;;;31.95;4.35;;;6.10;99.90;;;;;;5102045;28;20036;-77
2021/12/20 02:05:12;;;;;;;23.58;3.92;;;6.10;99.90;;;;;;5087102;28;20036;-77
2021/12/20 02:07:50;;;;;;;31.45;4.57;;;6.10;99.90;;;;;;5086464;28;20046;-77
2021/12/20 02:10:20;;;;;;;33.85;4.32;;;6.10;99.90;;;;;;5067303;28;20133;-77
2021/12/20 02:12:46;;;;;;;26.88;5.35;;;6.10;99.90;;;;;;5088144;28;20036;-77
2021/12/20 02:15:12;;;;;;;30.52;3.88;;;6.10;99.90;;;;;;5069166;28;20119;-77
2021/12/20 02:17:39;;;;;;;22.70;3.55;;;6.10;99.90;;;;;;5068947;28;20119;-77
2021/12/20 02:20:06;;;;;;;27.33;3.72;;;6.10;99.90;;;;;;5065559;28;20509;-77
2021/12/20 02:22:31;;;;;;;26.30;4.10;;;6.10;99.90;;;;;;5068338;28;20494;-77
2021/12/20 02:24:57;;;;;;;26.33;5.30;;;6.10;99.90;;;;;;5063860;28;20028;-77
2021/12/20 02:27:23;;;;;;;31.35;6.30;;;6.10;99.90;;;;;;5107310;27;20056;-77
2021/12/20 02:30:07;;;;;;;38.17;5.57;;;6.10;99.90;;;;;;5076048;28;20044;-77
2021/12/20 02:38:28;;;;;;;21.63;3.78;;;6.00;99.90;;;;;;5094581;28;20486;-77
2021/12/20 02:41:06;;;;;;;24.80;4.40;;;6.00;99.90;;;;;;5088439;28;20120;-77
2021/12/20 02:43:36;;;;;;;21.33;4.03;;;6.00;99.90;;;;;;5105008;28;20493;-77
2021/12/20 02:46:05;;;;;;;30.10;4.93;;;6.00;99.90;;;;;;5092897;28;20035;-77
2021/12/20 02:48:31;;;;;;;19.45;3.88;;;6.00;99.90;;;;;;5089918;28;20074;-77
2021/12/20 02:50:57;;;;;;;21.60;3.97;;;6.00;99.90;;;;;;5091361;28;20473;-77
2021/12/20 02:53:23;;;;;;;20.73;4.90;;;6.00;99.90;;;;;;5094168;28;20052;-77
2021/12/20 02:55:49;;;;;;;27.13;4.70;;;6.00;99.90;;;;;;5106432;27;20059;-77
2021/12/20 02:58:15;;;;;;;27.52;4.47;;;6.00;99.90;;;;;;5088203;28;20046;-77
2021/12/20 03:00:41;;;;;;;19.42;3.42;;;6.00;99.90;;;;;;5071496;28;20401;-77
2021/12/20 03:03:08;;;;;;;16.77;3.58;;;6.00;99.90;;;;;;5072376;28;20032;-77
2021/12/20 03:05:34;;;;;;;28.25;5.50;;;6.00;99.90;;;;;;5069517;28;20050;-77
2021/12/20 03:08:01;;;;;;;22.30;4.63;;;6.00;99.90;;;;;;5109079;27;20059;-77
2021/12/20 03:10:28;;;;;;;13.38;3.90;;;6.00;99.90;;;;;;5105066;27;20496;-77
2021/12/20 03:12:55;;;;;;;17.85;4.32;;;6.00;99.90;;;;;;5079715;28;20297;-77
2021/12/20 03:15:24;;;;;;;20.80;3.00;;;6.00;99.90;;;;;;5095811;28;20082;-77
2021/12/20 03:17:54;;;;;;;16.98;2.28;;;6.00;99.90;;;;;;5113862;27;20076;-77
2021/12/20 03:20:21;;;;;;;17.23;3.20;;;6.00;99.90;;;;;;5083244;28;20047;-77
2021/12/20 03:22:48;;;;;;;13.27;2.30;;;6.00;99.90;;;;;;5091925;28;20099;-77
2021/12/20 03:25:14;;;;;;;18.20;3.22;;;5.90;99.90;;;;;;5102731;27;20039;-77
2021/12/20 03:27:39;;;;;;;12.95;2.35;;;5.90;99.90;;;;;;5088055;28;20107;-77
2021/12/20 03:30:08;;;;;;;16.98;3.08;;;5.90;99.90;;;;;;5099799;28;20523;-77
2021/12/20 03:32:34;;;;;;;17.98;2.80;;;5.80;99.90;;;;;;5076472;28;20117;-77
2021/12/20 03:34:59;;;;;;;17.52;2.50;;;5.70;99.90;;;;;;5076070;28;20631;-77
2021/12/20 03:37:25;;;;;;;12.88;1.60;;;5.70;99.90;;;;;;5106148;27;20040;-77
2021/12/20 03:39:51;;;;;;;12.45;2.20;;;5.60;99.90;;;;;;5081988;28;20031;-77
2021/12/20 03:42:18;;;;;;;14.75;2.03;;;5.60;99.90;;;;;;5095623;28;20645;-77
2021/12/20 03:44:45;;;;;;;16.33;2.60;;;5.50;99.90;;;;;;5080138;28;20027;-77
2021/12/20 03:47:12;;;;;;;10.15;1.60;;;5.40;99.90;;;;;;5110416;27;20493;-77
2021/12/20 03:49:40;;;;;;;10.10;2.28;;;5.40;99.90;;;;;;5079670;28;20503;-77
2021/12/20 03:52:07;;;;;;;11.45;2.03;;;5.30;99.90;;;;;;5092104;28;20075;-77
2021/12/20 03:54:33;;;;;;;10.07;1.58;;;5.20;99.90;;;;;;5075066;28;20036;-77
2021/12/20 03:56:59;;;;;;;21.02;2.80;;;5.20;99.90;;;;;;5072380;28;20123;-77
2021/12/20 03:59:25;;;;;;;15.93;1.88;;;5.10;99.90;;;;;;5070611;28;20118;-76
2021/12/20 04:01:51;;;;;;;13.13;2.10;;;5.10;99.90;;;;;;5089182;28;20069;-77
2021/12/20 04:04:17;;;;;;;8.93;2.17;;;5.10;99.90;;;;;;5091418;28;20115;-77
2021/12/20 04:06:42;;;;;;;11.40;1.98;;;5.00;99.90;;;;;;5077351;28;20417;-77
2021/12/20 04:09:08;;;;;;;16.25;1.83;;;4.90;99.90;;;;;;5090300;28;20271;-77
2021/12/20 04:11:33;;;;;;;17.48;2.97;;;4.90;99.90;;;;;;5074097;28;20040;-77
2021/12/20 04:14:01;;;;;;;20.50;2.20;;;4.80;99.90;;;;;;5069215;28;20051;-77
2021/12/20 04:16:27;;;;;;;13.07;2.58;;;4.70;99.90;;;;;;5089852;28;20502;-77
2021/12/20 04:18:52;;;;;;;12.80;2.03;;;4.70;99.90;;;;;;5105867;27;20237;-77
2021/12/20 04:21:18;;;;;;;11.25;1.85;;;4.70;99.90;;;;;;5112076;27;20048;-77
2021/12/20 04:23:44;;;;;;;13.60;2.45;;;4.60;99.90;;;;;;5078876;28;20492;-76
2021/12/20 04:26:10;;;;;;;11.40;1.80;;;4.50;99.90;;;;;;5079499;28;20031;-76
2021/12/20 04:28:35;;;;;;;13.60;1.77;;;4.50;99.90;;;;;;5067030;28;20043;-77
2021/12/20 04:31:01;;;;;;;11.40;1.70;;;4.50;99.90;;;;;;5086734;28;20035;-77
2021/12/20 04:33:27;;;;;;;7.95;1.65;;;4.40;99.90;;;;;;5085544;28;20067;-77
2021/12/20 04:35:52;;;;;;;14.38;1.90;;;4.40;99.90;;;;;;5070541;28;20047;-76
2021/12/20 04:38:19;;;;;;;16.00;2.30;;;4.30;99.90;;;;;;5083600;28;20043;-77
2021/12/20 04:40:44;;;;;;;11.80;2.50;;;4.30;99.90;;;;;;5100516;28;20032;-77
2021/12/20 04:43:10;;;;;;;12.52;1.75;;;4.30;99.90;;;;;;5100632;27;20043;-77
2021/12/20 04:45:36;;;;;;;10.88;1.90;;;4.30;99.90;;;;;;5073871;28;20028;-77
2021/12/20 04:48:03;;;;;;;12.60;1.98;;;4.30;99.90;;;;;;5103591;27;20086;-77
2021/12/20 04:50:29;;;;;;;10.07;1.80;;;4.30;99.90;;;;;;5079086;28;20181;-77
2021/12/20 04:52:56;;;;;;;17.50;2.10;;;4.20;99.90;;;;;;5079604;28;20035;-76
2021/12/20 04:55:22;;;;;;;11.77;2.65;;;4.20;99.90;;;;;;5088393;28;20248;-76
2021/12/20 04:57:48;;;;;;;14.50;2.10;;;4.20;99.90;;;;;;5089600;28;20043;-77
2021/12/20 05:00:18;;;;;;;11.55;1.95;;;4.20;99.90;;;;;;5073190;28;20032;-77
2021/12/20 05:02:44;;;;;;;12.93;1.75;;;4.20;99.90;;;;;;5075732;28;20046;-77
2021/12/20 05:05:10;;;;;;;13.23;2.33;;;4.10;99.90;;;;;;5105932;27;20024;-77
2021/12/20 05:07:38;;;;;;;11.63;1.90;;;4.10;99.90;;;;;;5089448;28;20390;-77
2021/12/20 05:10:08;;;;;;;13.13;1.70;;;4.10;99.90;;;;;;5086980;28;20039;-76
2021/12/20 05:12:34;;;;;;;11.07;1.60;;;4.00;99.90;;;;;;5109000;27;20035;-77
2021/12/20 05:14:59;;;;;;;15.43;2.20;;;3.90;99.90;;;;;;5075048;28;20382;-77
2021/12/20 05:17:25;;;;;;;12.85;2.17;;;3.90;99.90;;;;;;5072085;28;20096;-76
2021/12/20 05:19:50;;;;;;;10.45;1.95;;;3.90;99.90;;;;;;5090775;28;20040;-77
2021/12/20 05:22:16;;;;;;;11.30;2.80;;;3.80;99.90;;;;;;5071376;28;20050;-77
2021/12/20 05:24:42;;;;;;;10.32;1.90;;;3.70;99.90;;;;;;5068377;28;20434;-77
2021/12/20 05:27:07;;;;;;;11.35;1.80;;;3.70;99.90;;;;;;5109015;28;20035;-77
2021/12/20 05:29:33;;;;;;;7.75;2.28;;;3.70;99.90;;;;;;5113072;28;20047;-77
2021/12/20 05:32:02;;;;;;;11.25;1.55;;;3.70;99.90;;;;;;5094130;28;20042;-77
2021/12/20 05:34:28;;;;;;;9.77;1.77;;;3.60;99.90;;;;;;5070904;28;20136;-77
2021/12/20 05:36:53;;;;;;;12.82;1.92;;;3.60;99.90;;;;;;5095373;28;20123;-77
2021/12/20 05:39:19;;;;;;;16.00;1.77;;;3.60;99.90;;;;;;5103031;28;20044;-77
2021/12/20 05:41:44;;;;;;;7.72;1.60;;;3.60;99.90;;;;;;5069615;28;20064;-77
2021/12/20 05:44:11;;;;;;;10.57;2.20;;;3.60;99.90;;;;;;5094220;28;20277;-77
2021/12/20 05:46:37;;;;;;;10.98;1.45;;;3.60;99.90;;;;;;5106341;28;20035;-77
2021/12/20 05:49:02;;;;;;;8.45;1.40;;;3.50;99.90;;;;;;5096145;28;20408;-77
2021/12/20 05:51:28;;;;;;;13.52;1.50;;;3.40;99.90;;;;;;5091503;28;20118;-76
2021/12/20 05:53:54;;;;;;;13.77;2.10;;;3.40;99.90;;;;;;5077906;28;20035;-76
2021/12/20 05:56:20;;;;;;;9.45;1.75;;;3.40;99.90;;;;;;5074406;28;20050;-77
2021/12/20 05:58:45;;;;;;;11.07;2.00;;;3.30;99.90;;;;;;5071029;28;20115;-77
2021/12/20 06:01:11;;;;;;;18.30;2.47;;;3.30;99.90;;;;;;5070673;28;20072;-77
2021/12/20 06:03:37;;;;;;;12.57;2.20;;;3.30;99.90;;;;;;5079785;28;20111;-77
2021/12/20 06:06:02;;;;;;;10.80;1.50;;;3.20;99.90;;;;;;5092044;28;20432;-76
2021/12/20 06:08:28;;;;;;;8.93;1.90;;;3.20;99.90;;;;;;5072567;28;20090;-77
2021/12/20 06:10:54;;;;;;;14.30;2.33;;;3.20;99.90;;;;;;5105637;28;20101;-77
2021/12/20 06:13:19;;;;;;;12.90;2.20;;;3.20;99.90;;;;;;5076380;28;20036;-76
2021/12/20 06:15:45;;;;;;;9.70;1.77;;;3.20;99.90;;;;;;5075785;28;20452;-77
2021/12/20 06:18:10;;;;;;;12.27;1.52;;;3.10;99.90;;;;;;5091858;28;20378;-77
2021/12/20 06:20:36;;;;;;;7.22;1.80;;;3.10;99.90;;;;;;5105837;28;20039;-76
2021/12/20 06:23:02;;;;;;;14.18;1.80;;;3.10;99.90;;;;;;5088509;28;20439;-77
2021/12/20 06:25:27;;;;;;;12.68;2.08;;;3.10;99.90;;;;;;5104264;28;20040;-76
2021/12/20 06:27:53;;;;;;;7.97;1.55;;;3.10;99.90;;;;;;5105020;28;20181;-76
2021/12/20 06:30:19;;;;;;;12.00;2.13;;;3.00;99.90;;;;;;5107313;28;20040;-76
2021/12/20 06:32:46;;;;;;;14.48;2.08;;;3.00;99.90;;;;;;5072596;28;20059;-77
2021/12/20 06:35:13;;;;;;;11.15;2.00;;;3.00;99.90;;;;;;5089825;28;20493;-76
2021/12/20 06:37:40;;;;;;;11.23;1.38;;;3.00;99.90;;;;;;5072070;28;20036;-76
2021/12/20 06:40:06;;;;;;;18.33;3.20;;;3.00;99.90;;;;;;5089236;28;20075;-77
2021/12/20 06:42:32;;;;;;;11.25;1.75;;;3.00;99.90;;;;;;5071709;28;20043;-77
2021/12/20 06:44:58;;;;;;;11.13;1.63;;;3.00;99.90;;;;;;5087270;28;20043;-76
2021/12/20 06:47:24;;;;;;;11.77;2.15;;;2.90;99.90;;;;;;5105644;28;20044;-76
2021/12/20 06:49:49;;;;;;;9.50;2.50;;;2.90;99.90;;;;;;5072953;28;20498;-77
2021/12/20 06:52:15;;;;;;;10.93;2.00;;;2.90;99.90;;;;;;5088764;28;20036;-77
2021/12/20 06:54:41;;;;;;;11.20;1.70;;;2.90;99.90;;;;;;5105454;28;20039;-76
2021/12/20 06:57:07;;;;;;;9.93;1.73;;;2.90;99.90;;;;;;5087416;28;20039;-76
2021/12/20 06:59:33;;;;;;;9.02;1.60;;;2.80;99.90;;;;;;5086916;28;20036;-77
2021/12/20 07:01:58;;;;;;;7.35;1.58;;;2.80;99.90;;;;;;5072484;28;20032;-76
2021/12/20 07:04:24;;;;;;;12.23;1.73;;;2.80;99.90;;;;;;5088897;28;20036;-77
2021/12/20 07:06:50;;;;;;;7.68;1.50;;;2.80;99.90;;;;;;5071714;28;20063;-76
2021/12/20 07:09:15;;;;;;;7.10;1.30;;;2.70;99.90;;;;;;5088202;28;20142;-76
2021/12/20 07:11:42;;;;;;;7.47;1.30;;;2.70;99.90;;;;;;5088362;28;20386;-77
2021/12/20 07:14:09;;;;;;;9.02;1.65;;;2.70;99.90;;;;;;5069584;28;20073;-76
2021/12/20 07:16:35;;;;;;;12.82;2.15;;;2.80;99.90;;;;;;5071487;28;20028;-76
2021/12/20 07:19:02;;;;;;;8.82;1.30;;;2.70;99.90;;;;;;5091399;28;20515;-76
2021/12/20 07:21:28;;;;;;;6.88;1.30;;;2.70;99.90;;;;;;5094600;28;20074;-77
2021/12/20 07:23:54;;;;;;;8.20;1.95;;;2.70;99.90;;;;;;5070104;28;20068;-77
2021/12/20 07:26:20;;;;;;;11.73;1.60;;;2.70;99.90;;;;;;5073035;28;20120;-76
2021/12/20 07:28:45;;;;;;;8.98;2.03;;;2.70;99.90;;;;;;5075632;28;20044;-76
2021/12/20 07:31:12;;;;;;;9.15;2.17;;;2.70;99.90;;;;;;5108813;27;20039;-76
2021/12/20 07:33:38;;;;;;;10.30;1.90;;;2.60;99.90;;;;;;5074330;28;20032;-76
2021/12/20 07:36:05;;;;;;;7.50;1.92;;;2.60;99.90;;;;;;5070719;28;20040;-76
2021/12/20 07:38:31;;;;;;;3.78;1.10;;;2.60;99.90;;;;;;5069183;28;20432;-76
2021/12/20 07:40:57;;;;;;;5.55;1.40;;;2.50;99.90;;;;;;5080067;28;20035;-77
2021/12/20 07:43:23;;;;;;;8.05;1.48;;;2.50;99.90;;;;;;5104508;27;20048;-77
2021/12/20 07:45:49;;;;;;;8.88;1.58;;;2.50;99.90;;;;;;5091728;28;20060;-77
2021/12/20 07:48:20;;;;;;;9.10;2.00;;;2.40;99.90;;;;;;5070547;28;20028;-77
2021/12/20 07:50:46;;;;;;;5.03;1.38;;;2.40;99.90;;;;;;5071449;28;20063;-76
2021/12/20 07:53:12;;;;;;;10.02;2.17;;;2.40;99.90;;;;;;5094598;28;20118;-76
2021/12/20 07:55:38;;;;;;;7.70;1.40;;;2.40;99.90;;;;;;5071615;28;20162;-76
2021/12/20 07:58:04;;;;;;;5.55;1.30;;;2.40;99.90;;;;;;5071185;28;20048;-76
2021/12/20 08:00:29;;;;;;;7.70;1.40;;;2.40;99.90;;;;;;5074925;28;20032;-77
2021/12/20 08:02:56;;;;;;;10.40;1.30;;;2.40;99.90;;;;;;5074259;28;20097;-76
2021/12/20 08:05:23;;;;;;;5.18;1.40;;;2.40;99.90;;;;;;5105305;27;20532;-76
2021/12/20 08:07:50;;;;;;;12.05;1.98;;;2.40;99.90;;;;;;5076019;28;20036;-77
2021/12/20 08:10:27;;;;;;;11.82;1.73;;;2.40;99.90;;;;;;5069029;28;20036;-76
2021/12/20 08:12:53;;;;;;;6.10;1.40;;;2.40;99.90;;;;;;5088937;28;20493;-76
2021/12/20 08:15:21;;;;;;;7.15;1.45;;;2.40;99.90;;;;;;5072310;28;20055;-76
2021/12/20 08:17:49;;;;;;;9.38;1.50;;;2.40;99.90;;;;;;5069249;28;20042;-76
2021/12/20 08:20:15;;;;;;;7.97;1.23;;;2.50;99.90;;;;;;5086405;28;20047;-77
2021/12/20 08:22:42;;;;;;;9.65;2.28;;;2.50;99.90;;;;;;5068062;28;20048;-77
2021/12/20 08:25:08;;;;;;;7.40;1.80;;;2.50;99.90;;;;;;5085143;28;20209;-76
2021/12/20 08:27:34;;;;;;;10.90;1.75;;;2.50;99.90;;;;;;5078968;28;20116;-76
2021/12/20 08:30:00;;;;;;;10.68;1.48;;;2.40;99.90;;;;;;5096724;28;20043;-76
2021/12/20 08:32:26;;;;;;;10.90;2.00;;;2.40;99.90;;;;;;5084564;28;20032;-76
2021/12/20 08:34:53;;;;;;;7.35;1.77;;;2.40;99.90;;;;;;5099960;28;20048;-76
2021/12/20 08:37:19;;;;;;;12.15;2.45;;;2.40;99.90;;;;;;5079021;28;20406;-76
2021/12/20 08:39:44;;;;;;;11.40;2.20;;;2.40;99.90;;;;;;5060907;28;20039;-76
2021/12/20 08:42:10;;;;;;;11.63;2.28;;;2.30;99.90;;;;;;5075556;28;20028;-77
2021/12/20 08:44:36;;;;;;;11.50;2.08;;;2.40;99.90;;;;;;5094078;28;20464;-76
2021/12/20 08:47:02;;;;;;;9.23;2.55;;;2.40;99.90;;;;;;5085029;28;20162;-77
2021/12/20 08:49:28;;;;;;;10.73;2.38;;;2.50;99.90;;;;;;5103959;27;20032;-82
2021/12/20 08:51:56;;;;;;;7.72;2.50;;;2.40;99.90;;;;;;5101585;28;20058;-79
2021/12/20 08:54:27;;;;;;;8.00;1.83;;;2.40;99.90;;;;;;5080793;28;20043;-76
2021/12/20 08:56:53;;;;;;;11.63;2.65;;;2.50;99.90;;;;;;5082229;28;20040;-76
2021/12/20 08:59:19;;;;;;;15.50;3.38;;;2.50;99.90;;;;;;5082636;28;20405;-77
2021/12/20 09:01:45;;;;;;;7.47;2.28;;;2.40;99.90;;;;;;5093095;28;20128;-77
2021/12/20 09:04:11;;;;;;;12.48;3.00;;;2.40;99.90;;;;;;5057823;28;20549;-76
2021/12/20 09:06:39;;;;;;;13.10;2.42;;;2.40;99.90;;;;;;5066469;28;20046;-77
2021/12/20 09:09:07;;;;;;;10.60;2.00;;;2.50;99.90;;;;;;5078997;28;20040;-76
2021/12/20 09:11:33;;;;;;;8.75;1.60;;;2.40;99.90;;;;;;5098139;27;20059;-76
2021/12/20 09:13:59;;;;;;;11.10;2.05;;;2.50;99.90;;;;;;5097956;28;20044;-76
2021/12/20 09:16:25;;;;;;;10.93;1.80;;;2.50;99.90;;;;;;5065322;28;20473;-78
2021/12/20 09:18:50;;;;;;;8.95;1.70;;;2.50;99.90;;;;;;5067261;28;20040;-79
2021/12/20 09:21:16;;;;;;;10.50;1.63;;;2.50;99.90;;;;;;5083462;28;20110;-75
2021/12/20 09:23:43;;;;;;;7.43;1.90;;;2.50;99.90;;;;;;5082535;28;20044;-76
2021/12/20 09:26:08;;;;;;;10.68;2.00;;;2.50;99.90;;;;;;5079018;28;20039;-76
2021/12/20 09:28:34;;;;;;;10.75;2.05;;;2.50;99.90;;;;;;5093671;28;20180;-76
2021/12/20 09:31:02;;;;;;;9.23;2.22;;;2.50;99.90;;;;;;5083628;28;20127;-76
2021/12/20 09:33:28;;;;;;;10.98;1.80;;;2.50;99.90;;;;;;5090031;28;20063;-76
2021/12/20 09:35:54;;;;;;;11.32;2.28;;;2.50;99.90;;;;;;5108478;27;20622;-76
2021/12/20 09:38:21;;;;;;;13.63;2.03;;;2.50;99.90;;;;;;5090516;28;22307;-76
2021/12/20 09:43:52;;;;;;;12.25;2.28;;;2.60;99.90;;;;;;5082034;28;20036;-76
2021/12/20 09:46:24;;;;;;;13.30;1.90;;;2.60;99.90;;;;;;5087742;28;20744;-76
2021/12/20 09:48:50;;;;;;;15.05;2.42;;;2.60;99.90;;;;;;5085808;28;20052;-76
2021/12/20 09:51:17;;;;;;;10.52;2.58;;;2.60;99.90;;;;;;5094061;28;20039;-76
2021/12/20 09:53:43;;;;;;;9.32;2.95;;;2.60;99.90;;;;;;5078069;28;20084;-76
2021/12/20 09:56:09;;;;;;;12.70;2.58;;;2.70;99.90;;;;;;5105160;27;20028;-76
2021/12/20 09:58:38;;;;;;;11.50;2.17;;;2.70;99.90;;;;;;5088373;28;20048;-76
2021/12/20 10:01:07;;;;;;;11.43;2.10;;;2.80;99.90;;;;;;5068407;28;20024;-76
2021/12/20 10:03:35;;;;;;;12.25;2.53;;;2.80;99.90;;;;;;5085233;28;20059;-77
2021/12/20 10:06:01;;;;;;;10.35;2.63;;;2.80;99.90;;;;;;5095211;27;20447;-76
2021/12/20 10:08:34;;;;;;;14.45;3.05;;;2.80;99.90;;;;;;5105843;27;20071;-76
2021/12/20 10:11:28;;;;;;;17.42;3.22;;;2.90;99.90;;;;;;5081825;28;20052;-76
2021/12/20 10:14:06;;;;;;;14.15;4.03;;;3.00;99.90;;;;;;5087057;28;20496;-77
2021/12/20 10:16:34;;;;;;;19.63;4.75;;;3.00;99.90;;;;;;5091201;28;20040;-77
2021/12/20 10:19:00;;;;;;;14.07;4.60;;;3.00;99.90;;;;;;5106008;27;20056;-76
2021/12/20 10:21:40;;;;;;;13.32;5.43;;;3.10;99.90;;;;;;5091220;28;20050;-77
2021/12/20 10:24:07;;;;;;;13.73;4.25;;;3.20;99.90;;;;;;5086010;28;20021;-77
2021/12/20 10:26:41;;;;;;;14.18;4.38;;;3.20;99.90;;;;;;5083523;28;20131;-77
2021/12/20 10:29:19;;;;;;;17.13;4.97;;;3.30;99.90;;;;;;5070993;28;20439;-77
2021/12/20 10:31:45;;;;;;;21.08;5.13;;;3.30;99.90;;;;;;5098680;27;20048;-77
2021/12/20 10:34:13;;;;;;;21.27;4.95;;;3.40;99.90;;;;;;5071471;28;20040;-77
2021/12/20 10:36:50;;;;;;;19.98;5.35;;;3.50;99.90;;;;;;5102219;28;20050;-77
2021/12/20 10:39:15;;;;;;;22.40;6.32;;;3.50;99.90;;;;;;5080386;28;20160;-77
2021/12/20 10:41:49;;;;;;;22.10;5.25;;;3.60;99.90;;;;;;5066652;28;20417;-77
2021/12/20 10:44:18;;;;;;;18.60;6.07;;;3.60;99.90;;;;;;5084056;28;20036;-76
2021/12/20 10:46:53;;;;;;;20.75;4.25;;;3.70;99.90;;;;;;5088599;28;20118;-77
2021/12/20 10:49:25;;;;;;;16.13;4.20;;;3.70;99.90;;;;;;5067453;28;20054;-77
2021/12/20 10:51:52;;;;;;;14.73;4.18;;;3.70;99.90;;;;;;5102275;27;20298;-77
2021/12/20 10:54:21;;;;;;;10.18;2.42;;;3.70;99.90;;;;;;5098907;27;20055;-77
2021/12/20 10:56:54;;;;;;;18.02;3.58;;;3.80;99.90;;;;;;5069835;28;20047;-77
2021/12/20 10:59:28;;;;;;;11.38;2.10;;;3.80;99.90;;;;;;5100545;28;20183;-77
2021/12/20 11:04:36;;;;;;;9.75;2.10;;;3.80;99.90;;;;;;5086255;28;20138;-77
2021/12/20 11:09:41;;;;;;;9.18;1.63;;;3.90;99.90;;;;;;5081908;28;20408;-77
2021/12/20 11:12:11;;;;;;;9.45;2.00;;;3.90;99.90;;;;;;5083453;28;20050;-77
2021/12/20 11:14:44;;;;;;;9.00;2.13;;;3.90;99.90;;;;;;5069274;28;20047;-77
2021/12/20 11:17:16;;;;;;;11.20;1.70;;;4.00;99.90;;;;;;5070460;28;20286;-77
2021/12/20 11:19:48;;;;;;;12.52;1.92;;;3.90;99.90;;;;;;5064833;28;20105;-78
2021/12/20 11:22:17;;;;;;;4.28;1.30;;;4.00;99.90;;;;;;5085840;28;20040;-78
2021/12/20 11:24:53;;;;;;;6.20;1.00;;;4.00;99.90;;;;;;5100138;27;20088;-78
2021/12/20 11:27:24;;;;;;;6.43;1.00;;;4.00;99.90;;;;;;5069736;28;20028;-78
2021/12/20 11:29:52;;;;;;;6.38;1.15;;;4.10;99.90;;;;;;5066265;28;20123;-77
2021/12/20 11:32:21;;;;;;;6.07;1.25;;;4.00;99.90;;;;;;5086404;28;20040;-76
2021/12/20 11:34:47;;;;;;;8.02;1.23;;;4.10;99.90;;;;;;5086169;28;20043;-79
2021/12/20 11:37:16;;;;;;;6.63;1.30;;;4.10;99.90;;;;;;5068314;28;20073;-78
2021/12/20 11:39:42;;;;;;;6.57;0.90;;;4.10;99.90;;;;;;5070218;28;20051;-77
2021/12/20 11:42:08;;;;;;;7.82;1.60;;;4.10;99.90;;;;;;5069919;28;20044;-78
2021/12/20 11:44:37;;;;;;;4.15;0.90;;;4.10;99.90;;;;;;5094050;28;20038;-78
2021/12/20 11:47:09;;;;;;;4.88;0.77;;;4.10;99.90;;;;;;5079045;28;20081;-78
2021/12/20 11:49:35;;;;;;;6.05;0.90;;;4.20;99.90;;;;;;5098956;28;20386;-78
2021/12/20 11:52:12;;;;;;;3.50;0.82;;;4.20;99.90;;;;;;5097255;28;20123;-78
2021/12/20 11:54:45;;;;;;;5.53;0.95;;;4.20;99.90;;;;;;5079401;28;20131;-79
2021/12/20 11:57:32;;;;;;;3.38;0.80;;;4.20;99.90;;;;;;5084158;28;20043;-77
2021/12/20 12:00:20;;;;;;;5.82;1.00;;;4.20;99.90;;;;;;5084303;28;20028;-77
2021/12/20 12:02:47;;;;;;;5.43;1.65;;;4.20;99.90;;;;;;5065240;28;20043;-76
2021/12/20 12:05:18;;;;;;;12.50;4.45;;;4.30;99.90;;;;;;5083994;28;20044;-77
2021/12/20 12:07:46;;;;;;;8.98;3.17;;;4.20;99.90;;;;;;5066730;28;20036;-77
2021/12/20 12:10:15;;;;;;;5.47;0.80;;;4.20;99.90;;;;;;5069377;28;20059;-76
2021/12/20 12:12:44;;;;;;;4.07;0.57;;;4.20;99.90;;;;;;5069676;28;20082;-77
2021/12/20 12:15:28;;;;;;;4.25;0.50;;;4.30;99.90;;;;;;5085128;28;20036;-76
2021/12/20 12:18:02;;;;;;;5.18;0.95;;;4.30;99.90;;;;;;5066689;28;20149;-76
2021/12/20 12:20:52;;;;;;;2.53;0.43;;;4.30;99.90;;;;;;5071880;28;20064;-76
2021/12/20 12:23:18;;;;;;;1.67;0.73;;;4.30;99.90;;;;;;5086430;28;20068;-76
2021/12/20 12:25:59;;;;;;;3.55;0.57;;;4.30;99.90;;;;;;5088286;28;20509;-76
2021/12/20 12:28:42;;;;;;;3.58;0.50;;;4.30;99.90;;;;;;5083302;28;20048;-76
2021/12/20 12:31:09;;;;;;;4.10;0.50;;;4.30;99.90;;;;;;5104920;27;20047;-76
2021/12/20 12:33:37;;;;;;;3.33;0.65;;;4.40;99.90;;;;;;5101672;27;20592;-77
2021/12/20 12:36:30;;;;;;;4.97;1.00;;;4.30;99.90;;;;;;5067798;28;20042;-77
2021/12/20 12:38:59;;;;;;;6.88;1.60;;;4.30;99.90;;;;;;5077792;28;20555;-77
2021/12/20 12:41:31;;;;;;;5.28;1.70;;;4.30;99.90;;;;;;5086691;28;20036;-76
2021/12/20 12:44:18;;;;;;;9.65;4.38;;;4.40;99.90;;;;;;5068862;28;20044;-76
2021/12/20 12:46:58;;;;;;;4.70;2.40;;;4.40;99.90;;;;;;5085418;28;20216;-77
2021/12/20 12:49:29;;;;;;;7.68;1.38;;;4.30;99.90;;;;;;5098339;28;20165;-77
2021/12/20 12:52:06;;;;;;;5.45;1.88;;;4.30;99.90;;;;;;5069062;28;20067;-77
2021/12/20 12:54:35;;;;;;;5.50;3.40;;;4.40;99.90;;;;;;5085750;28;20122;-77
2021/12/20 12:57:09;;;;;;;4.20;1.23;;;4.40;99.90;;;;;;5067647;28;20040;-76
2021/12/20 12:59:47;;;;;;;4.65;1.40;;;4.40;99.90;;;;;;5083045;28;20073;-76
2021/12/20 13:02:22;;;;;;;7.25;1.25;;;4.40;99.90;;;;;;5086781;28;20401;-76
2021/12/20 13:05:16;;;;;;;3.17;1.10;;;4.50;99.90;;;;;;5085071;28;20032;-76
2021/12/20 13:07:49;;;;;;;6.70;2.55;;;4.40;99.90;;;;;;5081380;28;20036;-79
2021/12/20 13:10:29;;;;;;;6.68;2.88;;;4.40;99.90;;;;;;5083646;28;20143;-78
2021/12/20 13:13:06;;;;;;;3.30;1.42;;;4.40;99.90;;;;;;5085388;28;20040;-77